createdAt,value
2022-08-14T00:04:52.447Z,99.85
2022-08-14T00:10:52.972Z,99.36
2022-08-14T00:16:00.818Z,100.00
2022-08-14T00:21:28.389Z,99.58
2022-08-14T00:26:54.777Z,99.63
2022-08-14T00:32:52.767Z,99.96
2022-08-14T00:37:59.263Z,99.77
2022-08-14T00:43:21.357Z,98.99
2022-08-14T00:48:43.189Z,97.69
2022-08-14T00:54:21.827Z,96.32
2022-08-14T00:59:44.129Z,96.06
2022-08-14T01:05:06.851Z,94.85
2022-08-14T01:10:38.300Z,92.52
2022-08-14T01:16:03.661Z,92.46
2022-08-14T01:21:47.272Z,92.97
2022-08-14T01:27:16.501Z,94.60
2022-08-14T01:32:42.826Z,94.43
2022-08-14T01:38:05.780Z,97.51
2022-08-14T01:43:27.897Z,94.22
2022-08-14T01:48:51.434Z,93.52
2022-08-14T01:54:16.712Z,92.84
2022-08-14T01:59:40.225Z,93.95
2022-08-14T02:05:05.854Z,94.81
2022-08-14T02:10:29.058Z,94.37
2022-08-14T02:15:51.046Z,94.25
2022-08-14T02:21:13.532Z,95.27
2022-08-14T02:26:58.449Z,95.03
2022-08-14T02:32:30.533Z,95.65
2022-08-14T02:37:58.780Z,97.34
2022-08-14T02:43:22.531Z,96.85
2022-08-14T02:49:03.009Z,97.94
2022-08-14T02:54:27.448Z,97.83
2022-08-14T02:59:50.182Z,98.84
2022-08-14T03:05:12.858Z,99.82
2022-08-14T03:10:36.542Z,99.85
2022-08-14T03:16:05.896Z,99.03
2022-08-14T03:21:31.437Z,99.33
2022-08-14T03:26:57.864Z,99.75
2022-08-14T03:32:19.758Z,100.00
2022-08-14T03:39:10.404Z,100.00
2022-08-14T03:43:34.289Z,100.00
2022-08-14T03:48:57.291Z,100.00
2022-08-14T03:54:20.445Z,100.00
2022-08-14T03:59:42.571Z,100.00
2022-08-14T04:05:12.734Z,100.00
2022-08-14T04:10:35.235Z,100.00
2022-08-14T04:16:01.588Z,100.00
2022-08-14T04:21:28.077Z,100.00
2022-08-14T04:26:49.927Z,100.00
2022-08-14T04:33:02.433Z,100.00
2022-08-14T04:37:54.354Z,100.00
2022-08-14T04:43:17.276Z,100.00
2022-08-14T04:48:43.180Z,100.00
2022-08-14T04:54:05.747Z,99.06
2022-08-14T04:59:27.578Z,95.01
2022-08-14T05:04:56.750Z,97.59
2022-08-14T05:10:21.960Z,93.02
2022-08-14T05:15:48.045Z,74.42
2022-08-14T05:21:59.612Z,63.71
2022-08-14T05:26:51.818Z,60.04
2022-08-14T05:32:15.197Z,61.49
2022-08-14T05:37:37.222Z,65.06
2022-08-14T05:43:10.282Z,74.28
2022-08-14T05:48:42.877Z,80.46
2022-08-14T05:54:11.348Z,84.79
2022-08-14T05:59:38.620Z,83.23
2022-08-14T06:05:01.357Z,89.08
2022-08-14T06:10:23.303Z,85.90
2022-08-14T06:15:47.919Z,87.48
2022-08-14T06:21:13.001Z,80.74
2022-08-14T06:26:37.565Z,85.22
2022-08-14T06:32:00.489Z,88.64
2022-08-14T06:37:52.944Z,93.37
2022-08-14T06:43:17.029Z,89.85
2022-08-14T06:48:39.073Z,77.44
2022-08-14T06:54:04.013Z,83.22
2022-08-14T06:59:25.948Z,78.01
2022-08-14T07:04:48.931Z,75.94
2022-08-14T07:10:16.778Z,66.76
2022-08-14T07:15:42.236Z,64.77
2022-08-14T07:21:05.999Z,61.47
2022-08-14T07:26:29.427Z,53.68
2022-08-14T07:31:51.495Z,50.57
2022-08-14T07:37:15.007Z,50.78
2022-08-14T07:42:36.943Z,53.34
2022-08-14T07:47:58.795Z,56.77
2022-08-14T07:53:21.261Z,45.03
2022-08-14T07:58:51.601Z,55.00
2022-08-14T08:04:18.793Z,50.38
2022-08-14T08:09:53.477Z,51.50
2022-08-14T08:15:15.381Z,58.13
2022-08-14T08:20:41.537Z,61.35
2022-08-14T08:26:14.372Z,64.60
2022-08-14T08:31:52.211Z,66.41
2022-08-14T08:37:15.233Z,71.25
2022-08-14T08:42:38.601Z,68.23
2022-08-14T08:48:20.776Z,68.27
2022-08-14T08:54:06.243Z,62.80
2022-08-14T08:59:31.642Z,59.59
2022-08-14T09:05:03.048Z,56.08
2022-08-14T09:10:27.164Z,62.42
2022-08-14T09:15:49.538Z,65.13
2022-08-14T09:21:13.163Z,63.26
2022-08-14T09:26:39.209Z,66.76
2022-08-14T09:32:57.921Z,68.06
2022-08-14T09:38:15.419Z,70.22
2022-08-14T09:44:07.716Z,69.18
2022-08-14T09:49:31.365Z,71.33
2022-08-14T09:54:55.985Z,70.46
2022-08-14T10:00:27.202Z,67.40
2022-08-14T10:06:14.066Z,66.94
2022-08-14T10:11:38.194Z,67.91
2022-08-14T10:17:08.674Z,68.29
2022-08-14T10:23:12.951Z,69.62
2022-08-14T10:28:39.075Z,70.67
2022-08-14T10:34:33.468Z,69.95
2022-08-14T10:40:05.562Z,70.23
2022-08-14T10:45:35.455Z,69.90
2022-08-14T10:51:03.826Z,71.37
2022-08-14T10:56:34.933Z,68.08
2022-08-14T11:01:57.063Z,68.10
2022-08-14T11:07:21.335Z,67.89
2022-08-14T11:12:48.971Z,71.24
2022-08-14T11:18:12.069Z,70.35
2022-08-14T11:23:44.934Z,71.64
2022-08-14T11:29:10.542Z,70.56
2022-08-14T11:34:37.072Z,70.40
2022-08-14T11:39:59.605Z,70.61
2022-08-14T11:45:29.767Z,69.76
2022-08-14T11:50:52.834Z,69.45
2022-08-14T11:56:15.098Z,70.06
2022-08-14T12:01:41.144Z,68.44
2022-08-14T12:07:07.352Z,70.17
2022-08-14T12:12:47.243Z,69.38
2022-08-14T12:18:11.341Z,66.12
2022-08-14T12:23:41.600Z,65.60
2022-08-14T12:29:08.392Z,67.94
2022-08-14T12:34:34.812Z,66.69
2022-08-14T12:40:15.710Z,67.31
2022-08-14T12:45:47.372Z,67.23
2022-08-14T12:51:19.413Z,68.06
2022-08-14T12:56:45.830Z,67.11
2022-08-14T13:02:11.273Z,66.35
2022-08-14T13:07:36.278Z,65.85
2022-08-14T13:13:13.486Z,66.69
2022-08-14T13:18:40.997Z,65.14
2022-08-14T13:24:09.341Z,65.01
2022-08-14T13:29:36.420Z,63.34
2022-08-14T13:35:00.153Z,64.20
2022-08-14T13:40:26.511Z,64.36
2022-08-14T13:46:00.925Z,65.45
2022-08-14T13:51:26.425Z,64.18
2022-08-14T13:56:52.167Z,64.85
2022-08-14T14:02:31.559Z,64.50
2022-08-14T14:07:56.236Z,61.01
2022-08-14T14:13:20.375Z,61.75
2022-08-14T14:18:43.309Z,60.52
2022-08-14T14:24:08.402Z,62.09
2022-08-14T14:29:45.741Z,61.79
2022-08-14T14:35:16.027Z,62.88
2022-08-14T14:40:53.788Z,61.59
2022-08-14T14:46:22.243Z,62.25
2022-08-14T14:51:58.386Z,62.32
2022-08-14T14:57:20.192Z,62.21
2022-08-14T15:02:51.634Z,61.90
2022-08-14T15:08:17.112Z,63.18
2022-08-14T15:13:52.991Z,62.11
2022-08-14T15:19:15.521Z,62.88
2022-08-14T15:24:38.332Z,61.64
2022-08-14T15:30:01.791Z,63.79
2022-08-14T15:35:25.597Z,64.17
2022-08-14T15:40:51.626Z,64.99
2022-08-14T15:46:41.382Z,65.24
2022-08-14T15:52:00.186Z,66.28
2022-08-14T15:57:22.098Z,66.85
2022-08-14T16:02:45.031Z,66.78
2022-08-14T16:08:28.570Z,65.23
2022-08-14T16:13:50.458Z,64.72
2022-08-14T16:19:16.222Z,65.26
2022-08-14T16:24:59.940Z,65.24
2022-08-14T16:30:27.745Z,65.06
2022-08-14T16:35:55.652Z,66.01
2022-08-14T16:41:33.184Z,66.67
2022-08-14T16:46:57.524Z,66.78
2022-08-14T16:52:26.174Z,67.61
2022-08-14T16:58:03.408Z,67.79
2022-08-14T17:03:25.426Z,67.85
2022-08-14T17:08:47.310Z,67.84
2022-08-14T17:14:10.548Z,68.37
2022-08-14T17:19:37.864Z,71.30
2022-08-14T17:30:59.849Z,75.20
2022-08-14T17:36:25.007Z,74.97
2022-08-14T17:42:02.804Z,75.82
2022-08-14T17:47:26.778Z,75.96
2022-08-14T17:52:50.226Z,77.47
2022-08-14T17:58:22.509Z,80.36
2022-08-14T18:03:52.327Z,80.65
2022-08-14T18:09:25.878Z,79.53
2022-08-14T18:14:52.775Z,70.27
2022-08-14T18:21:23.176Z,70.31
2022-08-14T18:25:58.730Z,79.43
2022-08-14T18:31:20.584Z,89.18
2022-08-14T18:36:56.744Z,95.34
2022-08-14T18:42:23.482Z,92.60
2022-08-14T18:48:14.404Z,90.40
2022-08-14T18:53:52.372Z,95.50
2022-08-14T18:59:38.909Z,98.84
2022-08-14T19:05:02.398Z,100.00
2022-08-14T19:10:32.013Z,100.00
2022-08-14T19:16:05.723Z,100.00
2022-08-14T19:21:37.797Z,100.00
2022-08-14T19:27:23.578Z,100.00
2022-08-14T19:32:50.971Z,100.00
2022-08-14T19:38:52.707Z,100.00
2022-08-14T19:44:19.254Z,100.00
2022-08-14T19:50:24.465Z,100.00
2022-08-14T19:55:34.192Z,100.00
2022-08-14T20:00:57.181Z,100.00
2022-08-14T20:06:19.639Z,100.00
2022-08-14T20:12:01.970Z,100.00
2022-08-14T20:17:25.080Z,100.00
2022-08-14T20:22:48.360Z,100.00
2022-08-14T20:28:29.577Z,100.00
2022-08-14T20:34:03.259Z,100.00
2022-08-14T20:39:26.775Z,100.00
2022-08-14T20:45:08.583Z,100.00
2022-08-14T20:50:35.484Z,100.00
2022-08-14T20:56:03.167Z,100.00
2022-08-14T21:01:32.654Z,100.00
2022-08-14T21:07:25.530Z,100.00
2022-08-14T21:13:14.365Z,100.00
2022-08-14T21:18:21.821Z,100.00
2022-08-14T21:23:55.387Z,100.00
2022-08-14T21:29:22.833Z,100.00
2022-08-14T21:34:55.140Z,100.00
2022-08-14T21:40:41.629Z,100.00
2022-08-14T21:46:02.907Z,100.00
2022-08-14T21:51:55.950Z,100.00
2022-08-14T21:57:14.719Z,100.00
2022-08-14T22:02:36.795Z,100.00
2022-08-14T22:08:06.225Z,100.00
2022-08-14T22:13:32.011Z,100.00
2022-08-14T22:18:54.422Z,100.00
2022-08-14T22:24:25.874Z,100.00
2022-08-14T22:30:01.913Z,100.00
2022-08-14T22:35:25.780Z,100.00
2022-08-14T22:41:03.974Z,100.00
2022-08-14T22:46:31.942Z,100.00
2022-08-14T22:51:55.377Z,100.00
2022-08-14T22:57:17.632Z,100.00
2022-08-14T23:02:40.718Z,100.00
2022-08-14T23:08:56.747Z,100.00
2022-08-14T23:13:46.523Z,100.00
2022-08-14T23:19:08.448Z,100.00
2022-08-14T23:24:31.010Z,100.00
2022-08-14T23:29:52.842Z,100.00
2022-08-14T23:35:15.553Z,100.00
2022-08-14T23:40:38.993Z,100.00
2022-08-14T23:46:00.830Z,100.00
2022-08-14T23:51:23.211Z,100.00
2022-08-14T23:56:45.044Z,100.00
